Terminal Aerodrome Forecast
Issued by NWS

Home | Current Version | Previous Version | Text Only | Print | Product List | Glossary On
Versions: 1 2 3 4 5 6 7 8 9 10 11 12 13
000
FTUS45 KABQ 012340
TAFAEG
TAF
KAEG 012340Z 0200/0224 17009KT P6SM SCT090 BKN140
     FM020130 29008KT P6SM VCSH SCT090 BKN120
     FM020500 32010KT P6SM BKN120
     FM022130 23009KT P6SM VCSH SCT090 BKN120=

USA.gov is the U.S. government's official web portal to all federal, state and local government web resources and services.